createdAt,value
2019-01-03T00:00:18.049Z,268.83
2019-01-03T00:01:18.180Z,270.59
2019-01-03T00:02:18.292Z,272.51
2019-01-03T00:03:18.385Z,271.79
2019-01-03T00:04:18.533Z,268.02
2019-01-03T00:05:18.615Z,272.60
2019-01-03T00:06:18.749Z,270.98
2019-01-03T00:07:18.851Z,271.43
2019-01-03T00:08:18.952Z,269.38
2019-01-03T00:09:19.069Z,268.59
2019-01-03T00:10:19.183Z,272.35
2019-01-03T00:11:19.323Z,269.57
2019-01-03T00:12:19.508Z,270.65
2019-01-03T00:13:19.527Z,271.42
2019-01-03T00:14:19.643Z,270.61
2019-01-03T00:15:19.781Z,272.54
2019-01-03T00:16:19.886Z,271.93
2019-01-03T00:17:20.012Z,271.53
2019-01-03T00:18:20.116Z,272.33
2019-01-03T00:19:20.231Z,271.52
2019-01-03T00:20:20.382Z,268.37
2019-01-03T00:21:20.549Z,271.87
2019-01-03T00:22:20.571Z,268.40
2019-01-03T00:23:20.705Z,267.78
2019-01-03T00:24:20.817Z,270.72
2019-01-03T00:25:20.975Z,269.84
2019-01-03T00:26:21.077Z,269.50
2019-01-03T00:27:21.156Z,271.92
2019-01-03T00:28:21.277Z,217.64
2019-01-03T00:29:21.499Z,268.22
2019-01-03T00:30:21.528Z,269.19
2019-01-03T00:31:21.651Z,271.56
2019-01-03T00:32:21.726Z,271.61
2019-01-03T00:33:21.875Z,270.11
2019-01-03T00:34:22.004Z,269.85
2019-01-03T00:35:22.130Z,269.01
2019-01-03T00:36:22.261Z,270.42
2019-01-03T00:37:22.444Z,268.48
2019-01-03T00:38:22.464Z,271.20
2019-01-03T00:39:22.576Z,269.15
2019-01-03T00:40:22.699Z,271.54
2019-01-03T00:41:22.843Z,270.57
2019-01-03T00:42:22.921Z,271.53
2019-01-03T00:43:23.039Z,268.00
2019-01-03T00:44:23.154Z,271.72
2019-01-03T00:45:23.359Z,270.93
2019-01-03T00:46:23.390Z,268.76
2019-01-03T00:47:23.504Z,268.61
2019-01-03T00:48:23.662Z,271.23
2019-01-03T00:49:23.718Z,268.73
2019-01-03T00:50:23.867Z,272.05
2019-01-03T00:51:24.063Z,268.47
2019-01-03T00:52:24.081Z,270.15
2019-01-03T00:53:24.249Z,271.23
2019-01-03T00:54:24.272Z,268.10
2019-01-03T00:55:24.414Z,270.32
2019-01-03T00:56:24.559Z,268.91
2019-01-03T00:57:24.646Z,268.39
2019-01-03T00:58:24.785Z,267.36
2019-01-03T00:59:24.875Z,272.10
2019-01-03T01:00:25.015Z,271.77
2019-01-03T01:01:25.166Z,269.16
2019-01-03T01:02:25.300Z,270.96
2019-01-03T01:03:25.368Z,270.26
2019-01-03T01:04:25.459Z,267.76
2019-01-03T01:05:25.583Z,272.27
2019-01-03T01:06:25.700Z,268.48
2019-01-03T01:07:25.797Z,270.36
2019-01-03T01:08:25.938Z,269.87
2019-01-03T01:09:26.039Z,270.25
2019-01-03T01:10:26.247Z,271.48
2019-01-03T01:11:26.272Z,271.49
2019-01-03T01:12:26.395Z,272.36
2019-01-03T01:13:26.530Z,271.08
2019-01-03T01:14:26.647Z,270.71
2019-01-03T01:15:26.756Z,271.96
2019-01-03T01:16:26.874Z,269.38
2019-01-03T01:17:26.961Z,271.79
2019-01-03T01:18:27.195Z,270.96
2019-01-03T01:19:27.192Z,268.25
2019-01-03T01:20:27.327Z,268.13
2019-01-03T01:21:27.688Z,268.61
2019-01-03T01:22:27.532Z,267.73
2019-01-03T01:23:27.676Z,271.20
2019-01-03T01:24:27.774Z,270.28
2019-01-03T01:25:27.906Z,269.50
2019-01-03T01:26:28.061Z,271.46
2019-01-03T01:27:28.101Z,270.08
2019-01-03T01:28:28.233Z,272.45
2019-01-03T01:29:28.398Z,271.93
2019-01-03T01:30:28.471Z,269.28
2019-01-03T01:31:28.589Z,272.52
2019-01-03T01:32:28.700Z,268.37
2019-01-03T01:33:28.832Z,271.89
2019-01-03T01:34:29.022Z,270.54
2019-01-03T01:35:29.036Z,268.22
2019-01-03T01:36:29.184Z,269.86
2019-01-03T01:37:29.297Z,270.10
2019-01-03T01:38:29.433Z,271.03
2019-01-03T01:39:29.554Z,268.39
2019-01-03T01:40:29.629Z,267.93
2019-01-03T01:41:29.774Z,271.72
2019-01-03T01:42:29.947Z,272.20
2019-01-03T01:43:30.123Z,269.06
2019-01-03T01:44:30.136Z,270.36
2019-01-03T01:45:30.236Z,272.56
2019-01-03T01:46:30.377Z,273.07
2019-01-03T01:47:30.563Z,269.79
2019-01-03T01:48:30.614Z,268.81
2019-01-03T01:49:30.711Z,272.20
2019-01-03T01:50:30.831Z,269.35
2019-01-03T01:51:31.059Z,268.29
2019-01-03T01:52:31.081Z,269.87
2019-01-03T01:53:31.189Z,268.96
2019-01-03T01:54:31.284Z,269.16
2019-01-03T01:55:31.380Z,270.54
2019-01-03T01:56:31.532Z,272.47
2019-01-03T01:57:31.667Z,272.00
2019-01-03T01:58:31.774Z,268.74
2019-01-03T01:59:31.976Z,270.31
2019-01-03T02:00:31.973Z,270.99
2019-01-03T02:01:32.089Z,269.75
2019-01-03T02:02:32.209Z,272.59
2019-01-03T02:03:32.346Z,269.13
2019-01-03T02:04:32.452Z,272.56
2019-01-03T02:05:32.576Z,269.57
2019-01-03T02:06:32.702Z,269.50
2019-01-03T02:07:32.836Z,269.26
2019-01-03T02:08:32.915Z,268.55
2019-01-03T02:09:33.020Z,267.84
2019-01-03T02:10:33.164Z,271.70
2019-01-03T02:11:33.265Z,268.78
2019-01-03T02:12:33.401Z,271.63
2019-01-03T02:13:33.481Z,268.46
2019-01-03T02:14:33.604Z,270.46
2019-01-03T02:15:33.758Z,271.61
2019-01-03T02:16:33.914Z,269.81
2019-01-03T02:17:33.992Z,270.54
2019-01-03T02:18:34.081Z,271.58
2019-01-03T02:19:34.178Z,272.01
2019-01-03T02:20:34.309Z,268.35
2019-01-03T02:21:34.439Z,271.00
2019-01-03T02:22:34.564Z,269.64
2019-01-03T02:23:34.695Z,269.44
2019-01-03T02:24:34.859Z,269.52
2019-01-03T02:25:34.891Z,271.03
2019-01-03T02:26:35.037Z,269.20
2019-01-03T02:27:35.124Z,272.48
2019-01-03T02:28:35.257Z,271.70
2019-01-03T02:29:35.339Z,271.56
2019-01-03T02:30:35.473Z,272.02
2019-01-03T02:31:35.646Z,273.09
2019-01-03T02:32:35.890Z,272.90
2019-01-03T02:33:35.857Z,269.48
2019-01-03T02:34:35.964Z,269.02
2019-01-03T02:35:36.106Z,272.10
2019-01-03T02:36:36.230Z,217.74
2019-01-03T02:37:36.357Z,269.71
2019-01-03T02:38:36.473Z,268.32
2019-01-03T02:39:36.577Z,271.05
2019-01-03T02:40:36.767Z,268.48
2019-01-03T02:41:36.805Z,270.53
2019-01-03T02:42:36.911Z,270.42
2019-01-03T02:43:37.059Z,269.13
2019-01-03T02:44:37.159Z,270.97
2019-01-03T02:45:37.274Z,270.69
2019-01-03T02:46:37.408Z,270.88
2019-01-03T02:47:37.511Z,271.49
2019-01-03T02:48:37.688Z,269.00
2019-01-03T02:49:37.756Z,269.54
2019-01-03T02:50:37.853Z,270.75
2019-01-03T02:51:37.986Z,269.46
2019-01-03T02:52:38.077Z,267.85
2019-01-03T02:53:38.209Z,271.96
2019-01-03T02:54:38.344Z,269.71
2019-01-03T02:55:38.443Z,272.43
2019-01-03T02:56:38.611Z,270.49
2019-01-03T02:57:38.768Z,267.66
2019-01-03T02:58:38.818Z,271.54
2019-01-03T02:59:39.148Z,273.04
2019-01-03T03:00:39.022Z,268.18
2019-01-03T03:01:39.150Z,271.31
2019-01-03T03:02:39.250Z,270.53
2019-01-03T03:03:39.383Z,270.02
2019-01-03T03:04:39.507Z,272.08
2019-01-03T03:05:39.727Z,268.58
2019-01-03T03:06:39.729Z,272.41
2019-01-03T03:07:39.828Z,268.96
2019-01-03T03:08:39.957Z,271.26
2019-01-03T03:09:40.068Z,270.96
2019-01-03T03:10:40.195Z,217.56
2019-01-03T03:11:40.393Z,272.46
2019-01-03T03:12:40.417Z,269.60
2019-01-03T03:13:40.667Z,271.16
2019-01-03T03:14:40.703Z,271.68
2019-01-03T03:15:40.766Z,271.95
2019-01-03T03:16:40.955Z,272.12
2019-01-03T03:17:41.005Z,270.47
2019-01-03T03:18:41.150Z,272.23
2019-01-03T03:19:41.254Z,270.63
2019-01-03T03:20:41.337Z,270.03
2019-01-03T03:21:41.540Z,270.80
2019-01-03T03:22:41.567Z,272.62
2019-01-03T03:23:41.719Z,271.08
2019-01-03T03:24:41.845Z,271.22
2019-01-03T03:25:41.902Z,269.33
2019-01-03T03:26:42.036Z,269.99
2019-01-03T03:27:42.150Z,269.13
2019-01-03T03:28:42.297Z,271.93
2019-01-03T03:29:42.453Z,272.57
2019-01-03T03:30:42.513Z,271.84
2019-01-03T03:31:42.610Z,217.37
2019-01-03T03:32:42.729Z,217.44
2019-01-03T03:33:42.883Z,217.42
2019-01-03T03:34:42.989Z,217.41
2019-01-03T03:35:43.087Z,217.33
2019-01-03T03:36:43.221Z,217.42
2019-01-03T03:37:43.319Z,217.44
2019-01-03T03:38:43.567Z,217.48
2019-01-03T03:39:43.562Z,217.45
2019-01-03T03:40:43.677Z,217.44
2019-01-03T03:41:43.776Z,217.40
2019-01-03T03:42:43.893Z,217.41
2019-01-03T03:43:44.026Z,217.48
2019-01-03T03:44:44.143Z,217.45
2019-01-03T03:45:44.250Z,217.42
2019-01-03T03:46:44.501Z,217.40
2019-01-03T03:47:44.492Z,217.37
2019-01-03T03:48:44.636Z,217.41
2019-01-03T03:49:44.755Z,217.42
2019-01-03T03:50:44.853Z,217.40
2019-01-03T03:51:44.972Z,217.44
2019-01-03T03:52:45.114Z,217.44
2019-01-03T03:53:45.218Z,217.45
2019-01-03T03:54:45.401Z,217.39
2019-01-03T03:55:45.426Z,217.45
2019-01-03T03:56:45.549Z,217.39
2019-01-03T03:57:45.671Z,217.42
2019-01-03T03:58:45.814Z,217.45
2019-01-03T03:59:45.897Z,217.44
2019-01-03T04:00:46.011Z,217.41
2019-01-03T04:01:46.160Z,217.45
2019-01-03T04:02:46.340Z,217.47
2019-01-03T04:03:46.347Z,217.52
2019-01-03T04:04:46.478Z,217.45
2019-01-03T04:05:46.560Z,217.47
2019-01-03T04:06:46.690Z,217.48
2019-01-03T04:07:46.819Z,217.52
2019-01-03T04:08:46.947Z,217.56
2019-01-03T04:09:47.077Z,217.53
2019-01-03T04:10:47.161Z,217.57
2019-01-03T04:11:47.289Z,217.58
2019-01-03T04:12:47.417Z,217.57
2019-01-03T04:13:47.516Z,217.57
2019-01-03T04:14:47.670Z,217.57
2019-01-03T04:15:47.773Z,217.62
2019-01-03T04:16:47.852Z,217.61
2019-01-03T04:17:47.997Z,217.65
2019-01-03T04:18:48.141Z,217.62
2019-01-03T04:19:48.387Z,217.59
2019-01-03T04:20:48.344Z,217.54
2019-01-03T04:21:48.444Z,217.52
2019-01-03T04:22:48.586Z,217.58
2019-01-03T04:23:48.704Z,217.57
2019-01-03T04:24:48.838Z,217.58
2019-01-03T04:25:48.928Z,217.59
2019-01-03T04:26:49.040Z,217.56
2019-01-03T04:27:49.291Z,217.57
2019-01-03T04:28:49.278Z,217.60
2019-01-03T04:29:49.431Z,217.52
2019-01-03T04:30:49.512Z,217.56
2019-01-03T04:31:49.604Z,217.58
2019-01-03T04:32:49.746Z,217.57
2019-01-03T04:33:49.857Z,217.54
2019-01-03T04:34:50.015Z,217.57
2019-01-03T04:35:50.170Z,217.54
2019-01-03T04:36:50.420Z,217.54
2019-01-03T04:37:50.314Z,217.58
2019-01-03T04:38:50.416Z,217.56
2019-01-03T04:39:50.587Z,217.57
2019-01-03T04:40:50.659Z,217.56
2019-01-03T04:41:50.780Z,217.59
2019-01-03T04:42:50.913Z,217.60
2019-01-03T04:43:51.049Z,217.56
2019-01-03T04:44:51.118Z,217.58
2019-01-03T04:45:51.263Z,217.54
2019-01-03T04:46:51.362Z,217.53
2019-01-03T04:47:51.495Z,217.56
2019-01-03T04:48:51.596Z,217.53
2019-01-03T04:49:51.726Z,217.58
2019-01-03T04:50:51.846Z,217.45
2019-01-03T04:51:52.022Z,217.52
2019-01-03T04:52:52.173Z,217.48
2019-01-03T04:53:52.198Z,217.50
2019-01-03T04:54:52.312Z,217.56
2019-01-03T04:55:52.455Z,217.53
2019-01-03T04:56:52.561Z,217.45
2019-01-03T04:57:52.707Z,217.52
2019-01-03T04:58:52.800Z,217.47
2019-01-03T04:59:52.954Z,217.48
2019-01-03T05:00:53.183Z,217.45
2019-01-03T05:01:53.154Z,217.45
2019-01-03T05:02:53.280Z,217.45
2019-01-03T05:03:53.379Z,217.49
2019-01-03T05:04:53.502Z,217.44
2019-01-03T05:05:53.651Z,217.41
2019-01-03T05:06:53.706Z,217.44
2019-01-03T05:07:53.857Z,217.42
2019-01-03T05:08:54.079Z,217.37
2019-01-03T05:09:54.072Z,217.42
2019-01-03T05:10:54.229Z,217.41
2019-01-03T05:11:54.300Z,217.31
2019-01-03T05:12:54.454Z,217.33
2019-01-03T05:13:54.533Z,217.30
2019-01-03T05:14:54.696Z,217.33
2019-01-03T05:15:54.783Z,217.33
2019-01-03T05:16:54.917Z,217.30
2019-01-03T05:17:54.981Z,217.29
2019-01-03T05:18:55.104Z,217.33
2019-01-03T05:19:55.249Z,217.30
2019-01-03T05:20:55.374Z,217.33
2019-01-03T05:21:55.447Z,217.25
2019-01-03T05:22:55.589Z,217.25
2019-01-03T05:23:57.435Z,217.23
2019-01-03T05:24:56.074Z,217.25
2019-01-03T05:25:55.901Z,217.21
2019-01-03T05:26:56.001Z,217.18
2019-01-03T05:27:56.132Z,217.18
2019-01-03T05:28:56.216Z,217.18
2019-01-03T05:29:56.354Z,217.22
2019-01-03T05:30:56.476Z,217.17
2019-01-03T05:31:56.576Z,217.19
2019-01-03T05:32:56.729Z,217.22
2019-01-03T05:33:56.836Z,217.23
2019-01-03T05:34:56.952Z,217.10
2019-01-03T05:35:57.059Z,217.09
2019-01-03T05:36:57.166Z,217.10
2019-01-03T05:37:57.306Z,217.10
2019-01-03T05:38:57.396Z,217.08
2019-01-03T05:39:57.534Z,217.13
2019-01-03T05:40:57.637Z,217.10
2019-01-03T05:41:57.850Z,217.06
2019-01-03T05:42:57.872Z,217.01
2019-01-03T05:43:57.973Z,217.06
2019-01-03T05:44:58.079Z,217.01
2019-01-03T05:45:58.670Z,217.11
2019-01-03T05:46:58.330Z,217.09
2019-01-03T05:47:58.478Z,217.05
2019-01-03T05:48:58.567Z,217.00
2019-01-03T05:49:58.747Z,216.97
2019-01-03T05:50:58.787Z,217.09
2019-01-03T05:51:58.899Z,217.00
2019-01-03T05:52:59.033Z,217.02
2019-01-03T05:53:59.138Z,217.01
2019-01-03T05:54:59.247Z,216.99
2019-01-03T05:55:59.376Z,217.10
2019-01-03T05:56:59.462Z,217.01
2019-01-03T05:57:59.650Z,217.05
2019-01-03T05:58:59.690Z,217.02
2019-01-03T05:59:59.809Z,217.01
2019-01-03T06:00:59.966Z,217.02
2019-01-03T06:02:00.035Z,216.97
2019-01-03T06:03:00.144Z,217.05
2019-01-03T06:04:00.288Z,216.93
2019-01-03T06:05:00.394Z,216.99
2019-01-03T06:06:00.580Z,216.96
2019-01-03T06:07:00.630Z,216.98
2019-01-03T06:08:00.752Z,217.04
2019-01-03T06:09:00.888Z,216.82
2019-01-03T06:10:01.090Z,216.96
2019-01-03T06:11:01.181Z,216.98
2019-01-03T06:12:01.255Z,216.90
2019-01-03T06:13:01.370Z,216.88
2019-01-03T06:14:01.740Z,216.90
2019-01-03T06:15:01.719Z,216.93
2019-01-03T06:16:01.758Z,216.93
2019-01-03T06:17:01.828Z,216.88
2019-01-03T06:18:01.944Z,216.88
2019-01-03T06:19:02.065Z,216.88
2019-01-03T06:20:02.157Z,216.85
2019-01-03T06:21:02.331Z,216.85
2019-01-03T06:22:02.406Z,216.88
2019-01-03T06:23:02.628Z,216.87
2019-01-03T06:24:02.630Z,216.84
2019-01-03T06:25:02.728Z,216.82
2019-01-03T06:26:03.000Z,216.84
2019-01-03T06:27:02.974Z,216.85
2019-01-03T06:28:03.093Z,216.76
2019-01-03T06:29:03.222Z,216.85
2019-01-03T06:30:03.326Z,216.81
2019-01-03T06:31:03.528Z,216.76
2019-01-03T06:32:03.564Z,216.82
2019-01-03T06:33:03.640Z,216.79
2019-01-03T06:34:03.790Z,216.80
2019-01-03T06:35:03.887Z,216.73
2019-01-03T06:36:04.002Z,216.80
2019-01-03T06:37:04.143Z,216.78
2019-01-03T06:38:04.249Z,216.78
2019-01-03T06:39:04.417Z,216.75
2019-01-03T06:40:04.459Z,216.79
2019-01-03T06:41:04.603Z,216.75
2019-01-03T06:42:04.708Z,216.80
2019-01-03T06:43:04.813Z,216.79
2019-01-03T06:44:04.935Z,216.80
2019-01-03T06:45:05.039Z,216.75
2019-01-03T06:46:05.176Z,216.78
2019-01-03T06:47:05.332Z,216.81
2019-01-03T06:48:05.417Z,216.76
2019-01-03T06:49:05.525Z,216.79
2019-01-03T06:50:05.620Z,216.78
2019-01-03T06:51:05.753Z,216.78
2019-01-03T06:52:05.877Z,216.73
2019-01-03T06:53:05.949Z,216.76
2019-01-03T06:54:06.082Z,216.76
2019-01-03T06:55:06.212Z,216.71
2019-01-03T06:56:06.420Z,216.70
2019-01-03T06:57:06.458Z,216.76
2019-01-03T06:58:06.526Z,216.81
2019-01-03T06:59:06.670Z,216.70
2019-01-03T07:00:06.777Z,216.71
2019-01-03T07:01:06.900Z,216.79
2019-01-03T07:02:07.022Z,216.70
2019-01-03T07:03:07.110Z,216.69
2019-01-03T07:04:07.382Z,216.63
2019-01-03T07:05:07.346Z,216.62
2019-01-03T07:06:07.464Z,216.67
2019-01-03T07:07:07.635Z,216.53
2019-01-03T07:08:07.695Z,216.61
2019-01-03T07:09:07.811Z,216.58
2019-01-03T07:10:07.933Z,216.61
2019-01-03T07:11:08.056Z,216.61
2019-01-03T07:12:08.287Z,216.59
2019-01-03T07:13:08.286Z,216.61
2019-01-03T07:14:08.426Z,216.65
2019-01-03T07:15:08.532Z,216.56
2019-01-03T07:16:08.635Z,216.63
2019-01-03T07:17:08.791Z,216.63
2019-01-03T07:18:08.878Z,216.51
2019-01-03T07:19:09.000Z,216.55
2019-01-03T07:20:09.154Z,216.48
2019-01-03T07:21:09.177Z,216.53
2019-01-03T07:22:09.355Z,216.44
2019-01-03T07:23:09.427Z,216.48
2019-01-03T07:24:09.566Z,216.46
2019-01-03T07:25:09.671Z,216.44
2019-01-03T07:26:09.782Z,216.42
2019-01-03T07:27:09.935Z,216.49
2019-01-03T07:28:10.056Z,216.41
2019-01-03T07:29:10.230Z,216.41
2019-01-03T07:30:10.238Z,216.34
2019-01-03T07:31:10.416Z,216.42
2019-01-03T07:32:10.500Z,216.36
2019-01-03T07:33:10.591Z,216.39
2019-01-03T07:34:10.731Z,216.39
2019-01-03T07:35:10.836Z,216.36
2019-01-03T07:36:10.962Z,216.33
2019-01-03T07:37:11.224Z,216.34
2019-01-03T07:38:11.186Z,216.27
2019-01-03T07:39:11.319Z,216.28
2019-01-03T07:40:11.412Z,216.33
2019-01-03T07:41:11.531Z,216.30
2019-01-03T07:42:11.681Z,216.34
2019-01-03T07:43:11.742Z,216.30
2019-01-03T07:44:11.895Z,216.34
2019-01-03T07:45:12.055Z,216.33
2019-01-03T07:46:12.089Z,216.30
2019-01-03T07:47:12.300Z,216.26
2019-01-03T07:48:12.313Z,216.30
2019-01-03T07:49:12.459Z,216.22
2019-01-03T07:50:12.558Z,216.28
2019-01-03T07:51:12.673Z,216.24
2019-01-03T07:52:12.838Z,216.28
2019-01-03T07:53:12.956Z,216.26
2019-01-03T07:54:13.234Z,216.22
2019-01-03T07:55:13.126Z,216.24
2019-01-03T07:56:13.238Z,216.24
2019-01-03T07:57:13.398Z,216.18
2019-01-03T07:58:13.468Z,216.22
2019-01-03T07:59:13.606Z,270.54
2019-01-03T08:00:13.686Z,269.73
2019-01-03T08:01:13.854Z,270.67
2019-01-03T08:02:13.941Z,268.24
2019-01-03T08:03:14.031Z,267.93
2019-01-03T08:04:14.164Z,269.86
2019-01-03T08:05:14.271Z,270.47
2019-01-03T08:06:14.372Z,269.92
2019-01-03T08:07:14.707Z,269.25
2019-01-03T08:08:14.621Z,268.94
2019-01-03T08:09:14.753Z,268.00
2019-01-03T08:10:14.938Z,269.82
2019-01-03T08:11:14.956Z,216.25
2019-01-03T08:12:15.115Z,216.20
2019-01-03T08:13:15.198Z,216.16
2019-01-03T08:14:15.314Z,216.18
2019-01-03T08:15:15.451Z,216.24
2019-01-03T08:16:15.562Z,216.20
2019-01-03T08:17:15.709Z,216.26
2019-01-03T08:18:15.929Z,216.25
2019-01-03T08:19:15.901Z,216.26
2019-01-03T08:20:16.036Z,216.26
2019-01-03T08:21:16.147Z,216.26
2019-01-03T08:22:16.264Z,216.28
2019-01-03T08:23:16.407Z,216.24
2019-01-03T08:24:16.506Z,216.18
2019-01-03T08:25:16.647Z,216.26
2019-01-03T08:26:16.804Z,216.19
2019-01-03T08:27:16.832Z,216.24
2019-01-03T08:28:16.961Z,216.18
2019-01-03T08:29:17.073Z,216.19
2019-01-03T08:30:17.192Z,216.22
2019-01-03T08:31:17.295Z,216.19
2019-01-03T08:32:17.452Z,216.20
2019-01-03T08:33:17.584Z,216.22
2019-01-03T08:34:17.705Z,216.22
2019-01-03T08:35:17.773Z,216.19
2019-01-03T08:36:17.878Z,216.22
2019-01-03T08:37:18.015Z,216.24
2019-01-03T08:38:18.146Z,216.19
2019-01-03T08:39:18.204Z,216.20
2019-01-03T08:40:18.351Z,216.16
2019-01-03T08:41:18.471Z,216.13
2019-01-03T08:42:18.645Z,216.13
2019-01-03T08:43:18.741Z,216.12
2019-01-03T08:44:18.806Z,216.07
2019-01-03T08:45:18.953Z,216.07
2019-01-03T08:46:19.069Z,216.08
2019-01-03T08:47:19.199Z,216.06
2019-01-03T08:48:19.307Z,216.10
2019-01-03T08:49:19.429Z,216.18
2019-01-03T08:50:19.542Z,216.07
2019-01-03T08:51:19.736Z,216.07
2019-01-03T08:52:19.788Z,215.99
2019-01-03T08:53:19.895Z,215.99
2019-01-03T08:54:20.003Z,216.01
2019-01-03T08:55:20.120Z,216.08
2019-01-03T08:56:20.235Z,215.99
2019-01-03T08:57:20.383Z,215.99
2019-01-03T08:58:20.503Z,215.99
2019-01-03T08:59:20.721Z,215.99
2019-01-03T09:00:20.724Z,216.01
2019-01-03T09:01:21.626Z,215.95
2019-01-03T09:02:20.966Z,216.01
2019-01-03T09:03:21.133Z,215.99
2019-01-03T09:04:21.187Z,215.98
2019-01-03T09:05:21.311Z,215.98
2019-01-03T09:06:21.406Z,216.03
2019-01-03T09:07:21.632Z,215.94
2019-01-03T09:08:21.641Z,215.98
2019-01-03T09:09:21.754Z,215.98
2019-01-03T09:10:21.884Z,215.87
2019-01-03T09:11:21.983Z,215.77
2019-01-03T09:12:22.084Z,215.81
2019-01-03T09:13:22.242Z,215.76
2019-01-03T09:14:22.329Z,215.85
2019-01-03T09:15:22.516Z,215.77
2019-01-03T09:16:22.543Z,215.79
2019-01-03T09:17:22.653Z,215.74
2019-01-03T09:18:22.809Z,215.83
2019-01-03T09:19:22.922Z,215.85
2019-01-03T09:20:23.058Z,215.77
2019-01-03T09:21:23.162Z,215.77
2019-01-03T09:22:23.276Z,215.84
2019-01-03T09:23:23.460Z,215.82
2019-01-03T09:24:23.581Z,215.82
2019-01-03T09:25:23.657Z,215.79
2019-01-03T09:26:23.753Z,215.84
2019-01-03T09:27:23.869Z,215.84
2019-01-03T09:28:24.141Z,215.91
2019-01-03T09:29:24.083Z,215.96
2019-01-03T09:30:24.235Z,215.94
2019-01-03T09:31:24.350Z,215.93
2019-01-03T09:32:24.554Z,215.98
2019-01-03T09:33:24.821Z,215.95
2019-01-03T09:34:24.683Z,215.91
2019-01-03T09:35:24.819Z,215.87
2019-01-03T09:36:24.924Z,215.88
2019-01-03T09:37:27.061Z,215.91
2019-01-03T09:38:25.193Z,215.94
2019-01-03T09:39:25.280Z,215.95
2019-01-03T09:40:25.536Z,215.95
2019-01-03T09:41:25.498Z,215.99
2019-01-03T09:42:25.615Z,216.01
2019-01-03T09:43:25.749Z,215.96
2019-01-03T09:44:25.862Z,215.99
2019-01-03T09:45:25.972Z,215.96
2019-01-03T09:46:26.077Z,215.91
2019-01-03T09:47:26.191Z,215.98
2019-01-03T09:48:26.383Z,215.90
2019-01-03T09:49:26.400Z,215.90
2019-01-03T09:50:26.580Z,215.90
2019-01-03T09:51:26.643Z,215.96
2019-01-03T09:52:26.774Z,215.98
2019-01-03T09:53:26.907Z,216.05
2019-01-03T09:54:27.004Z,215.98
2019-01-03T09:55:27.146Z,215.98
2019-01-03T09:56:27.281Z,215.94
2019-01-03T09:57:27.328Z,215.94
2019-01-03T09:58:27.474Z,215.91
2019-01-03T09:59:27.576Z,215.91
2019-01-03T10:00:27.728Z,215.96
2019-01-03T10:01:27.799Z,215.88
2019-01-03T10:02:27.906Z,215.95
2019-01-03T10:03:28.047Z,216.01
2019-01-03T10:04:28.323Z,216.05
2019-01-03T10:05:28.369Z,215.99
2019-01-03T10:06:28.393Z,215.98
2019-01-03T10:07:28.494Z,216.12
2019-01-03T10:08:28.660Z,216.12
2019-01-03T10:09:28.755Z,216.13
2019-01-03T10:10:28.877Z,216.12
2019-01-03T10:11:29.015Z,216.15
2019-01-03T10:12:29.095Z,216.20
2019-01-03T10:13:29.398Z,216.22
2019-01-03T10:14:29.342Z,216.16
2019-01-03T10:15:29.452Z,216.25
2019-01-03T10:16:29.577Z,216.08
2019-01-03T10:17:29.665Z,216.15
2019-01-03T10:18:29.788Z,216.05
2019-01-03T10:19:29.935Z,216.12
2019-01-03T10:20:30.040Z,216.05
2019-01-03T10:21:30.241Z,216.10
2019-01-03T10:22:30.263Z,216.10
2019-01-03T10:23:30.401Z,216.15
2019-01-03T10:24:30.496Z,216.07
2019-01-03T10:25:30.648Z,216.12
2019-01-03T10:26:30.747Z,216.07
2019-01-03T10:27:30.862Z,216.08
2019-01-03T10:28:30.998Z,216.06
2019-01-03T10:29:31.119Z,215.99
2019-01-03T10:30:31.214Z,215.99
2019-01-03T10:31:31.385Z,215.96
2019-01-03T10:32:31.446Z,215.98
2019-01-03T10:33:31.584Z,215.95
2019-01-03T10:34:31.678Z,216.01
2019-01-03T10:35:31.778Z,216.05
2019-01-03T10:36:31.932Z,215.96
2019-01-03T10:37:32.106Z,215.96
2019-01-03T10:38:32.166Z,215.95
2019-01-03T10:39:32.256Z,215.91
2019-01-03T10:40:32.363Z,215.93
2019-01-03T10:41:32.489Z,215.94
2019-01-03T10:42:32.633Z,215.87
2019-01-03T10:43:32.738Z,215.81
2019-01-03T10:44:32.835Z,215.74
2019-01-03T10:45:32.963Z,215.74
2019-01-03T10:46:33.185Z,215.77
2019-01-03T10:47:33.205Z,215.82
2019-01-03T10:48:33.302Z,215.77
2019-01-03T10:49:33.410Z,215.76
2019-01-03T10:50:33.528Z,215.74
2019-01-03T10:51:33.659Z,215.76
2019-01-03T10:52:33.750Z,215.85
2019-01-03T10:53:33.889Z,215.91
2019-01-03T10:54:34.103Z,215.88
2019-01-03T10:55:34.099Z,215.90
2019-01-03T10:56:34.238Z,215.90
2019-01-03T10:57:34.386Z,215.85
2019-01-03T10:58:34.467Z,215.88
2019-01-03T10:59:34.590Z,215.87
2019-01-03T11:00:34.693Z,215.95
2019-01-03T11:01:34.838Z,215.91
2019-01-03T11:02:35.002Z,215.94
2019-01-03T11:03:35.041Z,215.99
2019-01-03T11:04:35.139Z,215.96
2019-01-03T11:05:35.248Z,215.94
2019-01-03T11:06:35.391Z,215.91
2019-01-03T11:07:35.514Z,215.87
2019-01-03T11:08:35.604Z,215.82
2019-01-03T11:09:35.703Z,215.85
2019-01-03T11:10:35.907Z,215.80
2019-01-03T11:11:36.179Z,215.73
2019-01-03T11:12:36.080Z,215.74
2019-01-03T11:13:36.180Z,215.69
2019-01-03T11:14:36.266Z,215.70
2019-01-03T11:15:36.381Z,215.68
2019-01-03T11:16:36.528Z,215.63
2019-01-03T11:17:36.665Z,215.61
2019-01-03T11:18:36.799Z,215.60
2019-01-03T11:19:36.914Z,215.71
2019-01-03T11:20:36.977Z,215.62
2019-01-03T11:21:37.125Z,215.73
2019-01-03T11:22:37.237Z,215.68
2019-01-03T11:23:37.349Z,215.67
2019-01-03T11:24:37.454Z,215.63
2019-01-03T11:25:37.565Z,215.60
2019-01-03T11:26:37.698Z,215.56
2019-01-03T11:27:37.939Z,215.59
2019-01-03T11:28:37.980Z,215.56
2019-01-03T11:29:38.079Z,215.49
2019-01-03T11:30:38.180Z,215.53
2019-01-03T11:31:38.314Z,215.55
2019-01-03T11:32:38.450Z,215.51
2019-01-03T11:33:38.567Z,215.57
2019-01-03T11:34:38.673Z,215.59
2019-01-03T11:35:38.914Z,215.56
2019-01-03T11:36:38.969Z,215.51
2019-01-03T11:37:39.039Z,215.48
2019-01-03T11:38:39.159Z,215.50
2019-01-03T11:39:39.281Z,215.46
2019-01-03T11:40:39.384Z,215.50
2019-01-03T11:41:39.517Z,215.35
2019-01-03T11:42:39.597Z,215.37
2019-01-03T11:43:39.799Z,215.42
2019-01-03T11:44:39.842Z,215.38
2019-01-03T11:45:39.950Z,215.31
2019-01-03T11:46:40.086Z,215.31
2019-01-03T11:47:40.164Z,215.34
2019-01-03T11:48:40.300Z,215.33
2019-01-03T11:49:40.445Z,215.31
2019-01-03T11:50:40.545Z,215.31
2019-01-03T11:51:40.759Z,215.23
2019-01-03T11:52:40.751Z,215.23
2019-01-03T11:53:40.886Z,215.19
2019-01-03T11:54:41.043Z,215.31
2019-01-03T11:55:41.110Z,215.23
2019-01-03T11:56:41.243Z,215.20
2019-01-03T11:57:44.478Z,215.16
2019-01-03T11:58:41.476Z,215.20
2019-01-03T11:59:41.603Z,215.17
2019-01-03T12:00:41.720Z,215.19
2019-01-03T12:01:41.813Z,215.22
2019-01-03T12:02:41.920Z,215.17
2019-01-03T12:03:42.063Z,215.20
2019-01-03T12:04:42.168Z,215.20
2019-01-03T12:05:42.256Z,215.09
2019-01-03T12:06:42.403Z,215.10
2019-01-03T12:07:42.542Z,215.15
2019-01-03T12:08:42.741Z,215.08
2019-01-03T12:09:42.757Z,215.06
2019-01-03T12:10:42.848Z,215.09
2019-01-03T12:11:43.001Z,215.09
2019-01-03T12:12:43.137Z,215.06
2019-01-03T12:13:43.204Z,215.05
2019-01-03T12:14:43.369Z,215.11
2019-01-03T12:15:43.441Z,215.03
2019-01-03T12:16:43.700Z,215.10
2019-01-03T12:17:43.668Z,215.09
2019-01-03T12:18:43.798Z,215.05
2019-01-03T12:19:43.924Z,215.13
2019-01-03T12:20:43.999Z,215.02
2019-01-03T12:21:45.410Z,215.09
2019-01-03T12:22:44.251Z,215.08
2019-01-03T12:23:44.363Z,215.10
2019-01-03T12:24:44.611Z,215.12
2019-01-03T12:25:44.575Z,215.08
2019-01-03T12:26:44.717Z,215.10
2019-01-03T12:27:44.800Z,215.03
2019-01-03T12:28:44.959Z,215.08
2019-01-03T12:29:45.057Z,215.08